sensor_id;sensor_type;location;lat;lon;timestamp;temperature;humidity
38798;SHT11;24546;52.240;16.826;2022-12-10T00:02:12;2.60;99.90
38798;SHT11;24546;52.240;16.826;2022-12-10T00:07:13;2.60;99.90
38798;SHT11;24546;52.240;16.826;2022-12-10T00:12:14;2.50;99.90
38798;SHT11;24546;52.240;16.826;2022-12-10T00:17:15;2.30;99.90
38798;SHT11;24546;52.240;16.826;2022-12-10T00:22:16;2.20;99.90
38798;SHT11;24546;52.240;16.826;2022-12-10T00:27:17;2.50;99.90
38798;SHT11;24546;52.240;16.826;2022-12-10T00:32:18;2.30;99.90
38798;SHT11;24546;52.240;16.826;2022-12-10T00:37:19;2.50;99.90
38798;SHT11;24546;52.240;16.826;2022-12-10T00:42:20;2.20;99.90
38798;SHT11;24546;52.240;16.826;2022-12-10T00:47:21;2.20;99.90
38798;SHT11;24546;52.240;16.826;2022-12-10T00:52:22;2.40;99.90
38798;SHT11;24546;52.240;16.826;2022-12-10T00:57:23;2.30;99.90
38798;SHT11;24546;52.240;16.826;2022-12-10T01:02:24;2.30;99.90
38798;SHT11;24546;52.240;16.826;2022-12-10T01:07:25;2.20;99.90
38798;SHT11;24546;52.240;16.826;2022-12-10T01:12:26;2.40;99.90
38798;SHT11;24546;52.240;16.826;2022-12-10T01:17:29;2.40;99.90
38798;SHT11;24546;52.240;16.826;2022-12-10T01:22:30;2.40;99.90
38798;SHT11;24546;52.240;16.826;2022-12-10T01:27:31;2.40;99.90
38798;SHT11;24546;52.240;16.826;2022-12-10T01:32:32;2.30;99.90
38798;SHT11;24546;52.240;16.826;2022-12-10T01:37:34;2.60;99.90
38798;SHT11;24546;52.240;16.826;2022-12-10T01:42:35;2.20;99.90
38798;SHT11;24546;52.240;16.826;2022-12-10T01:47:36;2.00;99.90
38798;SHT11;24546;52.240;16.826;2022-12-10T01:52:37;2.10;99.90
38798;SHT11;24546;52.240;16.826;2022-12-10T01:57:39;2.30;99.90
38798;SHT11;24546;52.240;16.826;2022-12-10T02:02:55;2.00;99.90
38798;SHT11;24546;52.240;16.826;2022-12-10T02:13:17;2.00;99.90
38798;SHT11;24546;52.240;16.826;2022-12-10T02:18:50;2.10;99.90
38798;SHT11;24546;52.240;16.826;2022-12-10T02:24:10;2.20;99.90
38798;SHT11;24546;52.240;16.826;2022-12-10T02:34:18;2.30;99.90
38798;SHT11;24546;52.240;16.826;2022-12-10T02:39:25;2.40;99.90
38798;SHT11;24546;52.240;16.826;2022-12-10T02:44:31;2.40;99.90
38798;SHT11;24546;52.240;16.826;2022-12-10T02:49:35;2.20;99.90
38798;SHT11;24546;52.240;16.826;2022-12-10T02:54:48;2.20;99.90
38798;SHT11;24546;52.240;16.826;2022-12-10T03:00:11;2.50;99.90
38798;SHT11;24546;52.240;16.826;2022-12-10T03:10:45;2.50;99.90
38798;SHT11;24546;52.240;16.826;2022-12-10T03:15:50;2.60;99.90
38798;SHT11;24546;52.240;16.826;2022-12-10T03:20:54;2.20;99.90
38798;SHT11;24546;52.240;16.826;2022-12-10T03:25:58;2.20;99.90
38798;SHT11;24546;52.240;16.826;2022-12-10T03:31:01;2.20;99.90
38798;SHT11;24546;52.240;16.826;2022-12-10T03:36:04;2.40;99.90
38798;SHT11;24546;52.240;16.826;2022-12-10T03:41:05;2.30;99.90
38798;SHT11;24546;52.240;16.826;2022-12-10T03:46:06;2.40;99.90
38798;SHT11;24546;52.240;16.826;2022-12-10T03:51:07;2.50;99.90
38798;SHT11;24546;52.240;16.826;2022-12-10T03:56:08;2.20;99.90
38798;SHT11;24546;52.240;16.826;2022-12-10T04:01:09;2.30;99.90
38798;SHT11;24546;52.240;16.826;2022-12-10T04:06:16;2.30;99.90
38798;SHT11;24546;52.240;16.826;2022-12-10T04:11:18;2.30;99.90
38798;SHT11;24546;52.240;16.826;2022-12-10T04:16:19;2.20;99.90
38798;SHT11;24546;52.240;16.826;2022-12-10T04:21:30;2.10;99.90
38798;SHT11;24546;52.240;16.826;2022-12-10T04:26:50;2.00;99.90
38798;SHT11;24546;52.240;16.826;2022-12-10T04:31:55;2.00;99.90
38798;SHT11;24546;52.240;16.826;2022-12-10T04:36:57;2.00;99.90
38798;SHT11;24546;52.240;16.826;2022-12-10T04:41:59;2.10;99.90
38798;SHT11;24546;52.240;16.826;2022-12-10T04:47:00;1.90;99.90
38798;SHT11;24546;52.240;16.826;2022-12-10T04:52:02;1.70;99.90
38798;SHT11;24546;52.240;16.826;2022-12-10T04:57:03;1.90;99.90
38798;SHT11;24546;52.240;16.826;2022-12-10T05:02:05;2.10;99.90
38798;SHT11;24546;52.240;16.826;2022-12-10T05:07:06;2.10;99.90
38798;SHT11;24546;52.240;16.826;2022-12-10T05:12:07;2.00;99.90
38798;SHT11;24546;52.240;16.826;2022-12-10T05:17:08;1.90;99.90
38798;SHT11;24546;52.240;16.826;2022-12-10T05:22:09;1.90;99.90
38798;SHT11;24546;52.240;16.826;2022-12-10T05:27:32;2.00;99.90
38798;SHT11;24546;52.240;16.826;2022-12-10T05:32:33;1.80;99.90
38798;SHT11;24546;52.240;16.826;2022-12-10T05:37:34;1.60;99.90
38798;SHT11;24546;52.240;16.826;2022-12-10T05:42:35;1.80;99.90
38798;SHT11;24546;52.240;16.826;2022-12-10T05:47:35;1.70;99.90
38798;SHT11;24546;52.240;16.826;2022-12-10T05:52:36;1.80;99.90
38798;SHT11;24546;52.240;16.826;2022-12-10T05:57:37;2.10;99.90
38798;SHT11;24546;52.240;16.826;2022-12-10T06:02:38;2.10;99.90
38798;SHT11;24546;52.240;16.826;2022-12-10T06:07:39;2.00;99.90
38798;SHT11;24546;52.240;16.826;2022-12-10T06:12:40;1.70;99.90
38798;SHT11;24546;52.240;16.826;2022-12-10T06:17:40;1.90;99.90
38798;SHT11;24546;52.240;16.826;2022-12-10T06:22:42;2.00;99.90
38798;SHT11;24546;52.240;16.826;2022-12-10T06:27:43;2.10;99.90
38798;SHT11;24546;52.240;16.826;2022-12-10T06:32:44;2.10;99.90
38798;SHT11;24546;52.240;16.826;2022-12-10T06:37:45;2.20;99.90
38798;SHT11;24546;52.240;16.826;2022-12-10T06:42:46;2.20;99.90
38798;SHT11;24546;52.240;16.826;2022-12-10T06:47:46;2.20;99.90
38798;SHT11;24546;52.240;16.826;2022-12-10T06:52:49;2.30;99.90
38798;SHT11;24546;52.240;16.826;2022-12-10T06:57:55;2.40;99.90
38798;SHT11;24546;52.240;16.826;2022-12-10T07:02:56;2.40;99.90
38798;SHT11;24546;52.240;16.826;2022-12-10T07:07:57;2.30;99.90
38798;SHT11;24546;52.240;16.826;2022-12-10T07:12:57;2.30;99.90
38798;SHT11;24546;52.240;16.826;2022-12-10T07:17:58;2.20;99.90
38798;SHT11;24546;52.240;16.826;2022-12-10T07:22:59;2.20;99.90
38798;SHT11;24546;52.240;16.826;2022-12-10T07:28:00;2.20;99.90
38798;SHT11;24546;52.240;16.826;2022-12-10T07:33:01;2.40;99.90
38798;SHT11;24546;52.240;16.826;2022-12-10T07:38:01;2.40;99.90
38798;SHT11;24546;52.240;16.826;2022-12-10T07:43:03;2.50;99.90
38798;SHT11;24546;52.240;16.826;2022-12-10T07:48:04;2.30;99.90
38798;SHT11;24546;52.240;16.826;2022-12-10T07:53:05;2.20;99.90
38798;SHT11;24546;52.240;16.826;2022-12-10T07:58:06;2.40;99.90
38798;SHT11;24546;52.240;16.826;2022-12-10T08:03:10;2.50;99.90
38798;SHT11;24546;52.240;16.826;2022-12-10T08:08:11;2.60;99.90
38798;SHT11;24546;52.240;16.826;2022-12-10T08:13:12;2.60;99.90
38798;SHT11;24546;52.240;16.826;2022-12-10T08:18:13;2.60;99.90
38798;SHT11;24546;52.240;16.826;2022-12-10T08:23:14;2.70;99.90
38798;SHT11;24546;52.240;16.826;2022-12-10T08:28:15;2.60;99.90
38798;SHT11;24546;52.240;16.826;2022-12-10T08:33:16;2.60;99.90
38798;SHT11;24546;52.240;16.826;2022-12-10T08:38:17;2.60;99.90
38798;SHT11;24546;52.240;16.826;2022-12-10T08:43:17;2.40;99.90
38798;SHT11;24546;52.240;16.826;2022-12-10T08:48:18;2.40;99.90
38798;SHT11;24546;52.240;16.826;2022-12-10T08:53:19;2.60;99.90
38798;SHT11;24546;52.240;16.826;2022-12-10T08:58:20;2.90;99.90
38798;SHT11;24546;52.240;16.826;2022-12-10T09:03:21;2.90;99.90
38798;SHT11;24546;52.240;16.826;2022-12-10T09:08:22;2.80;99.90
38798;SHT11;24546;52.240;16.826;2022-12-10T09:13:23;2.70;99.90
38798;SHT11;24546;52.240;16.826;2022-12-10T09:18:24;2.70;99.90
38798;SHT11;24546;52.240;16.826;2022-12-10T09:23:25;2.70;99.90
38798;SHT11;24546;52.240;16.826;2022-12-10T09:28:27;2.40;99.90
38798;SHT11;24546;52.240;16.826;2022-12-10T09:33:28;2.50;99.90
38798;SHT11;24546;52.240;16.826;2022-12-10T09:38:29;2.70;99.90
38798;SHT11;24546;52.240;16.826;2022-12-10T09:43:51;2.50;99.90
38798;SHT11;24546;52.240;16.826;2022-12-10T09:53:57;2.50;99.90
38798;SHT11;24546;52.240;16.826;2022-12-10T09:59:03;2.60;99.90
38798;SHT11;24546;52.240;16.826;2022-12-10T10:04:09;2.50;99.90
38798;SHT11;24546;52.240;16.826;2022-12-10T10:09:12;2.50;99.90
38798;SHT11;24546;52.240;16.826;2022-12-10T10:14:21;2.40;99.90
38798;SHT11;24546;52.240;16.826;2022-12-10T10:19:33;2.60;99.90
38798;SHT11;24546;52.240;16.826;2022-12-10T10:24:37;2.70;99.90
38798;SHT11;24546;52.240;16.826;2022-12-10T10:29:39;2.70;99.90
38798;SHT11;24546;52.240;16.826;2022-12-10T10:34:41;2.70;99.90
38798;SHT11;24546;52.240;16.826;2022-12-10T10:39:47;2.80;99.90
38798;SHT11;24546;52.240;16.826;2022-12-10T10:44:48;2.90;99.90
38798;SHT11;24546;52.240;16.826;2022-12-10T10:49:49;3.00;99.90
38798;SHT11;24546;52.240;16.826;2022-12-10T10:54:50;3.10;99.90
38798;SHT11;24546;52.240;16.826;2022-12-10T11:00:04;2.80;99.90
38798;SHT11;24546;52.240;16.826;2022-12-10T11:05:14;3.10;99.90
38798;SHT11;24546;52.240;16.826;2022-12-10T11:10:21;2.90;99.90
38798;SHT11;24546;52.240;16.826;2022-12-10T11:20:33;2.90;99.90
38798;SHT11;24546;52.240;16.826;2022-12-10T11:26:06;3.00;99.90
38798;SHT11;24546;52.240;16.826;2022-12-10T11:36:42;3.00;99.90
38798;SHT11;24546;52.240;16.826;2022-12-10T11:41:59;2.80;99.90
38798;SHT11;24546;52.240;16.826;2022-12-10T11:52:44;2.50;99.90
38798;SHT11;24546;52.240;16.826;2022-12-10T12:03:33;2.90;99.90
38798;SHT11;24546;52.240;16.826;2022-12-10T12:08:42;2.90;99.90
38798;SHT11;24546;52.240;16.826;2022-12-10T12:13:52;3.00;99.90
38798;SHT11;24546;52.240;16.826;2022-12-10T12:19:16;3.10;99.90
38798;SHT11;24546;52.240;16.826;2022-12-10T12:24:28;3.10;99.90
38798;SHT11;24546;52.240;16.826;2022-12-10T12:29:45;2.90;99.90
38798;SHT11;24546;52.240;16.826;2022-12-10T12:34:49;3.20;99.90
38798;SHT11;24546;52.240;16.826;2022-12-10T12:40:02;3.30;99.90
38798;SHT11;24546;52.240;16.826;2022-12-10T12:45:12;3.20;99.90
38798;SHT11;24546;52.240;16.826;2022-12-10T12:55:50;3.20;99.90
38798;SHT11;24546;52.240;16.826;2022-12-10T13:00:58;3.10;99.90
38798;SHT11;24546;52.240;16.826;2022-12-10T13:06:16;3.20;99.90
38798;SHT11;24546;52.240;16.826;2022-12-10T13:11:28;3.10;99.90
38798;SHT11;24546;52.240;16.826;2022-12-10T13:16:48;3.00;99.90
38798;SHT11;24546;52.240;16.826;2022-12-10T13:22:12;3.10;99.90
38798;SHT11;24546;52.240;16.826;2022-12-10T13:32:21;3.00;99.90
38798;SHT11;24546;52.240;16.826;2022-12-10T13:37:30;3.00;99.90
38798;SHT11;24546;52.240;16.826;2022-12-10T13:42:34;3.10;99.90
38798;SHT11;24546;52.240;16.826;2022-12-10T13:53:47;3.10;99.90
38798;SHT11;24546;52.240;16.826;2022-12-10T13:58:54;3.00;99.90
38798;SHT11;24546;52.240;16.826;2022-12-10T14:09:29;2.90;99.90
38798;SHT11;24546;52.240;16.826;2022-12-10T14:14:40;3.00;99.90
38798;SHT11;24546;52.240;16.826;2022-12-10T14:19:45;2.90;99.90
38798;SHT11;24546;52.240;16.826;2022-12-10T14:24:49;3.00;99.90
38798;SHT11;24546;52.240;16.826;2022-12-10T14:29:59;3.00;99.90
38798;SHT11;24546;52.240;16.826;2022-12-10T14:35:02;3.10;99.90
38798;SHT11;24546;52.240;16.826;2022-12-10T14:40:05;3.00;99.90
38798;SHT11;24546;52.240;16.826;2022-12-10T14:45:13;2.90;99.90
38798;SHT11;24546;52.240;16.826;2022-12-10T14:50:16;2.80;99.90
38798;SHT11;24546;52.240;16.826;2022-12-10T14:55:20;2.70;99.90
38798;SHT11;24546;52.240;16.826;2022-12-10T15:00:23;2.50;99.90
38798;SHT11;24546;52.240;16.826;2022-12-10T15:05:29;2.40;99.90
38798;SHT11;24546;52.240;16.826;2022-12-10T15:10:40;2.50;99.90
38798;SHT11;24546;52.240;16.826;2022-12-10T15:15:43;2.60;99.90
38798;SHT11;24546;52.240;16.826;2022-12-10T15:20:50;2.50;99.90
38798;SHT11;24546;52.240;16.826;2022-12-10T15:25:56;2.50;99.90
38798;SHT11;24546;52.240;16.826;2022-12-10T15:31:09;2.50;99.90
38798;SHT11;24546;52.240;16.826;2022-12-10T15:36:49;2.00;99.90
38798;SHT11;24546;52.240;16.826;2022-12-10T15:41:52;2.30;99.90
38798;SHT11;24546;52.240;16.826;2022-12-10T15:47:19;2.50;99.90
38798;SHT11;24546;52.240;16.826;2022-12-10T15:52:33;2.20;99.90
38798;SHT11;24546;52.240;16.826;2022-12-10T15:57:37;2.10;99.90
38798;SHT11;24546;52.240;16.826;2022-12-10T16:02:44;2.00;99.90
38798;SHT11;24546;52.240;16.826;2022-12-10T16:07:47;2.20;99.90
38798;SHT11;24546;52.240;16.826;2022-12-10T16:13:05;2.30;99.90
38798;SHT11;24546;52.240;16.826;2022-12-10T16:18:09;2.00;99.90
38798;SHT11;24546;52.240;16.826;2022-12-10T16:23:11;1.60;99.90
38798;SHT11;24546;52.240;16.826;2022-12-10T16:28:14;1.60;99.90
38798;SHT11;24546;52.240;16.826;2022-12-10T16:33:18;1.80;99.90
38798;SHT11;24546;52.240;16.826;2022-12-10T16:38:19;1.70;99.90
38798;SHT11;24546;52.240;16.826;2022-12-10T16:43:23;1.70;99.90
38798;SHT11;24546;52.240;16.826;2022-12-10T16:48:25;1.70;99.90
38798;SHT11;24546;52.240;16.826;2022-12-10T16:53:29;1.80;99.90
38798;SHT11;24546;52.240;16.826;2022-12-10T16:58:31;1.70;99.90
38798;SHT11;24546;52.240;16.826;2022-12-10T17:03:32;1.80;99.90
38798;SHT11;24546;52.240;16.826;2022-12-10T17:08:38;1.70;99.90
38798;SHT11;24546;52.240;16.826;2022-12-10T17:13:42;1.80;99.90
38798;SHT11;24546;52.240;16.826;2022-12-10T17:18:43;1.70;99.90
38798;SHT11;24546;52.240;16.826;2022-12-10T17:23:44;1.80;99.90
38798;SHT11;24546;52.240;16.826;2022-12-10T17:28:44;1.60;99.90
38798;SHT11;24546;52.240;16.826;2022-12-10T17:33:48;1.50;99.90
38798;SHT11;24546;52.240;16.826;2022-12-10T17:38:49;1.50;99.90
38798;SHT11;24546;52.240;16.826;2022-12-10T17:43:50;1.30;99.90
38798;SHT11;24546;52.240;16.826;2022-12-10T17:48:51;1.50;99.90
38798;SHT11;24546;52.240;16.826;2022-12-10T17:53:52;1.50;99.90
38798;SHT11;24546;52.240;16.826;2022-12-10T17:58:54;1.60;99.90
38798;SHT11;24546;52.240;16.826;2022-12-10T18:03:55;1.60;99.90
38798;SHT11;24546;52.240;16.826;2022-12-10T18:08:59;1.70;99.90
38798;SHT11;24546;52.240;16.826;2022-12-10T18:14:00;1.60;99.90
38798;SHT11;24546;52.240;16.826;2022-12-10T18:19:06;1.70;99.90
38798;SHT11;24546;52.240;16.826;2022-12-10T18:24:07;1.80;99.90
38798;SHT11;24546;52.240;16.826;2022-12-10T18:29:10;1.80;99.90
38798;SHT11;24546;52.240;16.826;2022-12-10T18:34:15;1.80;99.90
38798;SHT11;24546;52.240;16.826;2022-12-10T18:39:23;1.90;99.90
38798;SHT11;24546;52.240;16.826;2022-12-10T18:44:26;1.70;99.90
38798;SHT11;24546;52.240;16.826;2022-12-10T18:49:27;1.70;99.90
38798;SHT11;24546;52.240;16.826;2022-12-10T18:54:30;1.80;99.90
38798;SHT11;24546;52.240;16.826;2022-12-10T18:59:31;1.80;99.90
38798;SHT11;24546;52.240;16.826;2022-12-10T19:04:32;1.90;99.90
38798;SHT11;24546;52.240;16.826;2022-12-10T19:09:33;1.70;99.90
38798;SHT11;24546;52.240;16.826;2022-12-10T19:14:37;1.60;99.90
38798;SHT11;24546;52.240;16.826;2022-12-10T19:19:38;1.80;99.90
38798;SHT11;24546;52.240;16.826;2022-12-10T19:24:40;1.70;99.90
38798;SHT11;24546;52.240;16.826;2022-12-10T19:29:40;1.70;99.90
38798;SHT11;24546;52.240;16.826;2022-12-10T19:34:41;1.70;99.90
38798;SHT11;24546;52.240;16.826;2022-12-10T19:39:42;1.60;99.90
38798;SHT11;24546;52.240;16.826;2022-12-10T19:44:43;1.50;99.90
38798;SHT11;24546;52.240;16.826;2022-12-10T19:49:44;1.30;99.90
38798;SHT11;24546;52.240;16.826;2022-12-10T19:54:44;1.10;99.90
38798;SHT11;24546;52.240;16.826;2022-12-10T19:59:45;1.00;99.90
38798;SHT11;24546;52.240;16.826;2022-12-10T20:04:46;1.10;99.90
38798;SHT11;24546;52.240;16.826;2022-12-10T20:09:47;1.20;99.90
38798;SHT11;24546;52.240;16.826;2022-12-10T20:14:48;1.20;99.90
38798;SHT11;24546;52.240;16.826;2022-12-10T20:19:50;1.20;99.90
38798;SHT11;24546;52.240;16.826;2022-12-10T20:24:50;1.20;99.90
38798;SHT11;24546;52.240;16.826;2022-12-10T20:29:51;1.10;99.90
38798;SHT11;24546;52.240;16.826;2022-12-10T20:34:52;1.20;99.90
38798;SHT11;24546;52.240;16.826;2022-12-10T20:39:53;1.20;99.90
38798;SHT11;24546;52.240;16.826;2022-12-10T20:44:54;1.00;99.90
38798;SHT11;24546;52.240;16.826;2022-12-10T20:49:55;0.90;99.90
38798;SHT11;24546;52.240;16.826;2022-12-10T20:54:55;0.80;99.90
38798;SHT11;24546;52.240;16.826;2022-12-10T20:59:56;0.70;99.90
38798;SHT11;24546;52.240;16.826;2022-12-10T21:04:57;0.80;99.90
38798;SHT11;24546;52.240;16.826;2022-12-10T21:09:59;0.90;99.90
38798;SHT11;24546;52.240;16.826;2022-12-10T21:15:00;0.90;99.90
38798;SHT11;24546;52.240;16.826;2022-12-10T21:20:01;0.90;99.90
38798;SHT11;24546;52.240;16.826;2022-12-10T21:25:02;0.90;99.90
38798;SHT11;24546;52.240;16.826;2022-12-10T21:30:04;0.90;99.90
38798;SHT11;24546;52.240;16.826;2022-12-10T21:35:05;0.80;99.90
38798;SHT11;24546;52.240;16.826;2022-12-10T21:40:07;0.80;99.90
38798;SHT11;24546;52.240;16.826;2022-12-10T21:45:08;0.80;99.90
38798;SHT11;24546;52.240;16.826;2022-12-10T21:50:11;0.70;99.90
38798;SHT11;24546;52.240;16.826;2022-12-10T21:55:12;0.90;99.90
38798;SHT11;24546;52.240;16.826;2022-12-10T22:00:14;0.80;99.90
38798;SHT11;24546;52.240;16.826;2022-12-10T22:05:15;0.90;99.90
38798;SHT11;24546;52.240;16.826;2022-12-10T22:10:16;0.90;99.90
38798;SHT11;24546;52.240;16.826;2022-12-10T22:15:17;0.90;99.90
38798;SHT11;24546;52.240;16.826;2022-12-10T22:20:18;0.90;99.90
38798;SHT11;24546;52.240;16.826;2022-12-10T22:25:19;0.90;99.90
38798;SHT11;24546;52.240;16.826;2022-12-10T22:30:20;0.70;99.90
38798;SHT11;24546;52.240;16.826;2022-12-10T22:35:21;0.80;99.90
38798;SHT11;24546;52.240;16.826;2022-12-10T22:40:22;1.00;99.90
38798;SHT11;24546;52.240;16.826;2022-12-10T22:45:22;0.80;99.90
38798;SHT11;24546;52.240;16.826;2022-12-10T22:50:23;0.80;99.90
38798;SHT11;24546;52.240;16.826;2022-12-10T22:55:24;0.90;99.90
38798;SHT11;24546;52.240;16.826;2022-12-10T23:00:26;0.80;99.90
38798;SHT11;24546;52.240;16.826;2022-12-10T23:05:26;0.70;99.90
38798;SHT11;24546;52.240;16.826;2022-12-10T23:10:27;0.70;99.90
38798;SHT11;24546;52.240;16.826;2022-12-10T23:15:28;0.80;99.90
38798;SHT11;24546;52.240;16.826;2022-12-10T23:20:30;1.00;99.90
38798;SHT11;24546;52.240;16.826;2022-12-10T23:25:32;1.20;99.90
38798;SHT11;24546;52.240;16.826;2022-12-10T23:30:33;1.20;99.90
38798;SHT11;24546;52.240;16.826;2022-12-10T23:35:33;1.30;99.90
38798;SHT11;24546;52.240;16.826;2022-12-10T23:40:38;1.30;99.90
38798;SHT11;24546;52.240;16.826;2022-12-10T23:45:39;1.30;99.90
38798;SHT11;24546;52.240;16.826;2022-12-10T23:50:40;1.30;99.90
38798;SHT11;24546;52.240;16.826;2022-12-10T23:55:44;1.20;99.90
